Time;durP1;ratioP1;P1;durP2;ratioP2;P2;SDS_P1;SDS_P2;PMS_P1;PMS_P2;Temp;Humidity;BMP_temperature;BMP_pressure;BME280_temperature;BME280_humidity;BME280_pressure;Samples;Min_cycle;Max_cycle;Signal;HPM_P1;HPM_P2
2022/01/07 00:01:36;;;;;;;6.30;2.67;;;6.40;99.90;;;;;;5025684;28;20684;-26
2022/01/07 00:04:05;;;;;;;4.20;2.20;;;6.30;99.90;;;;;;5026407;28;20197;-26
2022/01/07 00:06:34;;;;;;;8.13;2.97;;;6.40;99.90;;;;;;5022645;28;20206;-25
2022/01/07 00:09:03;;;;;;;8.00;2.23;;;6.40;99.90;;;;;;5024280;28;20593;-25
2022/01/07 00:11:32;;;;;;;8.50;2.77;;;6.40;99.90;;;;;;5027778;28;20201;-24
2022/01/07 00:14:02;;;;;;;7.20;2.10;;;6.40;99.90;;;;;;5026125;28;20751;-24
2022/01/07 00:16:29;;;;;;;8.13;2.67;;;6.40;99.90;;;;;;5026021;28;20201;-24
2022/01/07 00:19:01;;;;;;;8.80;2.67;;;6.40;99.90;;;;;;5032768;28;20610;-24
2022/01/07 00:21:31;;;;;;;6.10;2.40;;;6.40;99.90;;;;;;5040644;28;20838;-26
2022/01/07 00:23:59;;;;;;;8.20;2.43;;;6.40;99.90;;;;;;5042022;28;20219;-25
2022/01/07 00:26:27;;;;;;;9.70;3.87;;;6.40;99.90;;;;;;5046938;28;20200;-25
2022/01/07 00:28:54;;;;;;;5.83;2.43;;;6.40;99.90;;;;;;5047011;28;20193;-25
2022/01/07 00:31:21;;;;;;;7.27;2.20;;;6.40;99.90;;;;;;5041430;28;20213;-26
2022/01/07 00:33:49;;;;;;;6.63;2.20;;;6.40;99.90;;;;;;5025742;28;20197;-25
2022/01/07 00:36:21;;;;;;;6.53;2.20;;;6.50;99.90;;;;;;5030864;28;20685;-26
2022/01/07 00:38:48;;;;;;;4.47;2.00;;;6.50;99.90;;;;;;5023472;28;20201;-25
2022/01/07 00:41:16;;;;;;;6.73;2.40;;;6.50;99.90;;;;;;5031632;28;20251;-25
2022/01/07 00:43:45;;;;;;;7.50;2.07;;;6.40;99.90;;;;;;5025722;28;20197;-25
2022/01/07 00:46:15;;;;;;;5.63;1.70;;;6.50;99.90;;;;;;5024873;28;20630;-25
2022/01/07 00:48:44;;;;;;;5.57;1.90;;;6.40;99.90;;;;;;5035555;28;20624;-25
2022/01/07 00:51:13;;;;;;;6.70;2.00;;;6.40;99.90;;;;;;5030732;28;20245;-25
2022/01/07 00:53:41;;;;;;;5.70;1.77;;;6.40;99.90;;;;;;5030280;28;20204;-26
2022/01/07 00:56:11;;;;;;;5.90;2.30;;;6.50;99.90;;;;;;5049228;28;20624;-26
2022/01/07 00:58:38;;;;;;;7.73;2.17;;;6.50;99.90;;;;;;5028428;28;20247;-26
2022/01/07 01:01:05;;;;;;;5.83;2.30;;;6.50;99.90;;;;;;5035607;28;20221;-25
2022/01/07 01:03:33;;;;;;;7.40;2.13;;;6.50;99.90;;;;;;5029700;28;20205;-25
2022/01/07 01:06:01;;;;;;;4.30;1.80;;;6.50;99.90;;;;;;5035770;28;20216;-25
2022/01/07 01:08:28;;;;;;;8.63;2.47;;;6.50;99.90;;;;;;5030117;28;20602;-25
2022/01/07 01:10:55;;;;;;;10.67;2.77;;;6.40;99.90;;;;;;5033982;28;20889;-25
2022/01/07 01:13:22;;;;;;;8.00;2.50;;;6.40;99.90;;;;;;5034183;28;20204;-25
2022/01/07 01:15:50;;;;;;;11.73;2.87;;;6.50;99.90;;;;;;5028832;28;20219;-25
2022/01/07 01:18:22;;;;;;;4.97;2.20;;;6.50;99.90;;;;;;5035593;28;20625;-25
2022/01/07 01:20:49;;;;;;;6.97;2.10;;;6.50;99.90;;;;;;5044044;28;20208;-25
2022/01/07 01:23:16;;;;;;;5.90;2.50;;;6.50;99.90;;;;;;5029450;28;20205;-26
2022/01/07 01:25:49;;;;;;;7.67;2.50;;;6.50;99.90;;;;;;5034225;28;20660;-25
2022/01/07 01:28:19;;;;;;;5.70;2.33;;;6.50;99.90;;;;;;5029555;28;20200;-25
2022/01/07 01:30:49;;;;;;;6.90;2.40;;;6.50;99.90;;;;;;5034483;28;20229;-25
2022/01/07 01:33:18;;;;;;;5.60;2.57;;;6.50;99.90;;;;;;5029449;28;20674;-25
2022/01/07 01:35:45;;;;;;;4.53;2.23;;;6.50;99.90;;;;;;5035112;28;20216;-25
2022/01/07 01:38:12;;;;;;;7.40;2.40;;;6.60;99.90;;;;;;5028995;28;20614;-25
2022/01/07 01:40:40;;;;;;;5.60;2.70;;;6.60;99.90;;;;;;5034415;28;20244;-25
2022/01/07 01:43:10;;;;;;;5.33;2.30;;;6.60;99.90;;;;;;5061147;28;20219;-24
2022/01/07 01:45:37;;;;;;;7.43;2.30;;;6.60;99.90;;;;;;5033426;28;20213;-24
2022/01/07 01:48:05;;;;;;;9.33;2.77;;;6.60;99.90;;;;;;5030952;28;20300;-24
2022/01/07 01:50:32;;;;;;;8.20;2.80;;;6.60;99.90;;;;;;5029790;28;20247;-24
2022/01/07 01:53:04;;;;;;;7.13;2.67;;;6.60;99.90;;;;;;5029682;28;20209;-24
2022/01/07 01:55:34;;;;;;;4.60;2.30;;;6.60;99.90;;;;;;5029467;28;20585;-24
2022/01/07 01:58:01;;;;;;;5.50;2.40;;;6.60;99.90;;;;;;5027679;28;20201;-24
2022/01/07 02:00:31;;;;;;;6.30;1.97;;;6.60;99.90;;;;;;5028464;28;20219;-24
2022/01/07 02:02:59;;;;;;;5.60;2.70;;;6.60;99.90;;;;;;5029217;28;20205;-24
2022/01/07 02:05:27;;;;;;;4.33;2.10;;;6.60;99.90;;;;;;5030097;28;20304;-24
2022/01/07 02:07:55;;;;;;;7.27;2.43;;;6.70;99.90;;;;;;5009521;28;20678;-24
2022/01/07 02:10:22;;;;;;;8.20;2.30;;;6.70;99.90;;;;;;5029676;28;20220;-24
2022/01/07 02:12:50;;;;;;;7.60;2.43;;;6.70;99.90;;;;;;5029133;28;20514;-24
2022/01/07 02:15:18;;;;;;;7.90;2.63;;;6.70;99.90;;;;;;5059663;28;20208;-24
2022/01/07 02:17:49;;;;;;;7.73;2.50;;;6.70;99.90;;;;;;5027242;28;20235;-24
2022/01/07 02:20:19;;;;;;;5.27;2.23;;;6.70;99.90;;;;;;5033861;28;20235;-24
2022/01/07 02:22:49;;;;;;;5.27;2.20;;;6.70;99.90;;;;;;5029970;28;20205;-24
2022/01/07 02:25:16;;;;;;;7.70;2.43;;;6.70;99.90;;;;;;5038405;28;20205;-24
2022/01/07 02:27:44;;;;;;;6.90;2.33;;;6.70;99.90;;;;;;5029739;28;20606;-24
2022/01/07 02:30:16;;;;;;;9.77;2.53;;;6.70;99.90;;;;;;5027547;28;20224;-24
2022/01/07 02:32:44;;;;;;;9.57;2.70;;;6.70;99.90;;;;;;5029725;28;20628;-24
2022/01/07 02:35:13;;;;;;;5.13;2.23;;;6.70;99.90;;;;;;5046866;28;20196;-24
2022/01/07 02:37:40;;;;;;;5.33;2.33;;;6.70;99.90;;;;;;5038888;28;20249;-24
2022/01/07 02:40:10;;;;;;;8.60;2.10;;;6.60;99.90;;;;;;5028634;28;20251;-24
2022/01/07 02:42:37;;;;;;;4.93;2.27;;;6.60;99.90;;;;;;5027697;28;20200;-24
2022/01/07 02:45:08;;;;;;;4.93;2.60;;;6.60;99.90;;;;;;5026590;28;20195;-24
2022/01/07 02:47:57;;;;;;;3.87;2.47;;;6.60;99.90;;;;;;5028862;28;20234;-24
2022/01/07 02:50:35;;;;;;;6.30;2.40;;;6.60;99.90;;;;;;5028349;28;20299;-24
2022/01/07 02:53:08;;;;;;;5.93;2.57;;;6.60;99.90;;;;;;5030604;28;20212;-24
2022/01/07 02:55:37;;;;;;;6.27;2.70;;;6.50;99.90;;;;;;5048304;28;20209;-24
2022/01/07 02:58:06;;;;;;;6.47;2.17;;;6.60;99.90;;;;;;5028762;28;20204;-24
2022/01/07 03:00:35;;;;;;;5.00;2.47;;;6.50;99.90;;;;;;5030974;28;20573;-24
2022/01/07 03:03:07;;;;;;;4.97;2.23;;;6.50;99.90;;;;;;5045357;28;20705;-24
2022/01/07 03:05:39;;;;;;;4.77;2.30;;;6.50;99.90;;;;;;5027485;28;20288;-24
2022/01/07 03:08:06;;;;;;;4.80;2.57;;;6.50;99.90;;;;;;5027117;28;20205;-24
2022/01/07 03:10:35;;;;;;;5.23;2.60;;;6.50;99.90;;;;;;5032841;28;20220;-24
2022/01/07 03:13:05;;;;;;;5.00;2.27;;;6.40;99.90;;;;;;5027399;28;20683;-24
2022/01/07 03:15:34;;;;;;;4.43;2.77;;;6.40;99.90;;;;;;5032613;28;20209;-24
2022/01/07 03:18:04;;;;;;;4.50;2.70;;;6.40;99.90;;;;;;5029225;28;20212;-24
2022/01/07 03:20:38;;;;;;;6.50;2.37;;;6.40;99.90;;;;;;5027524;28;20291;-24
2022/01/07 03:23:07;;;;;;;4.60;2.20;;;6.40;99.90;;;;;;5032423;28;20261;-24
2022/01/07 03:25:36;;;;;;;4.90;2.80;;;6.40;99.90;;;;;;5026995;28;20203;-24
2022/01/07 03:28:04;;;;;;;5.90;2.60;;;6.40;99.90;;;;;;5036502;28;20311;-24
2022/01/07 03:30:34;;;;;;;5.10;2.30;;;6.40;99.90;;;;;;5025703;28;20219;-24
2022/01/07 03:33:01;;;;;;;3.80;2.20;;;6.40;99.90;;;;;;5031794;28;20228;-24
2022/01/07 03:35:33;;;;;;;2.90;2.23;;;6.40;99.90;;;;;;5027411;28;20653;-24
2022/01/07 03:38:01;;;;;;;5.13;2.87;;;6.40;99.90;;;;;;5027736;28;20855;-24
2022/01/07 03:40:29;;;;;;;4.37;2.93;;;6.40;99.90;;;;;;5030988;28;20201;-24
2022/01/07 03:42:59;;;;;;;3.43;2.20;;;6.40;99.90;;;;;;5031499;28;20215;-24
2022/01/07 03:45:26;;;;;;;3.83;2.10;;;6.40;99.90;;;;;;5026151;28;20216;-24
2022/01/07 03:47:54;;;;;;;4.30;2.47;;;6.40;99.90;;;;;;5028006;28;20205;-24
2022/01/07 03:50:25;;;;;;;3.17;2.30;;;6.40;99.90;;;;;;5027587;28;20237;-24
2022/01/07 03:52:54;;;;;;;4.77;2.80;;;6.40;99.90;;;;;;5027335;28;20255;-24
2022/01/07 03:55:26;;;;;;;4.50;2.53;;;6.40;99.90;;;;;;5026978;28;20213;-24
2022/01/07 03:57:53;;;;;;;3.63;2.40;;;6.40;99.90;;;;;;5024713;28;20205;-24
2022/01/07 04:00:25;;;;;;;3.27;2.27;;;6.40;99.90;;;;;;5025955;28;20227;-24
2022/01/07 04:02:53;;;;;;;3.33;2.30;;;6.40;99.90;;;;;;5019757;28;20205;-25
2022/01/07 04:05:22;;;;;;;3.37;2.47;;;6.40;99.90;;;;;;5026094;28;20219;-24
2022/01/07 04:07:50;;;;;;;5.17;2.67;;;6.40;99.90;;;;;;5026568;28;20233;-24
2022/01/07 04:10:17;;;;;;;4.57;2.47;;;6.40;99.90;;;;;;5058393;28;20229;-24
2022/01/07 04:12:45;;;;;;;4.67;2.40;;;6.40;99.90;;;;;;5027711;28;20617;-24
2022/01/07 04:15:12;;;;;;;5.70;2.60;;;6.40;99.90;;;;;;5023070;28;20217;-24
2022/01/07 04:17:48;;;;;;;4.23;2.70;;;6.40;99.90;;;;;;5026815;28;20227;-24
2022/01/07 04:20:26;;;;;;;4.17;2.37;;;6.40;99.90;;;;;;5031127;28;20323;-24
2022/01/07 04:22:54;;;;;;;5.43;2.47;;;6.40;99.90;;;;;;5031163;28;20200;-24
2022/01/07 04:25:22;;;;;;;5.93;2.50;;;6.40;99.90;;;;;;5033900;28;20214;-24
2022/01/07 04:27:58;;;;;;;4.63;2.53;;;6.40;99.90;;;;;;5038073;28;20675;-24
2022/01/07 04:30:29;;;;;;;4.67;2.73;;;6.40;99.90;;;;;;5029860;28;20295;-24
2022/01/07 04:33:05;;;;;;;3.30;2.53;;;6.40;99.90;;;;;;5029684;28;20793;-24
2022/01/07 04:35:35;;;;;;;3.10;2.60;;;6.40;99.90;;;;;;5030183;28;20201;-24
2022/01/07 04:38:08;;;;;;;4.87;2.70;;;6.40;99.90;;;;;;5031263;28;20197;-24
2022/01/07 04:40:35;;;;;;;5.30;2.70;;;6.40;99.90;;;;;;5028359;28;20204;-24
2022/01/07 04:43:04;;;;;;;5.33;3.43;;;6.40;99.90;;;;;;5029024;28;20270;-24
2022/01/07 04:45:32;;;;;;;3.07;2.50;;;6.50;99.90;;;;;;5028931;28;20208;-24
2022/01/07 04:48:03;;;;;;;4.63;2.80;;;6.50;99.90;;;;;;5024986;28;20235;-24
2022/01/07 04:50:32;;;;;;;6.07;3.10;;;6.50;99.90;;;;;;5030575;28;20255;-24
2022/01/07 04:53:00;;;;;;;3.97;2.97;;;6.50;99.90;;;;;;5030709;28;20300;-24
2022/01/07 04:55:29;;;;;;;4.87;3.10;;;6.50;99.90;;;;;;5030244;28;20466;-24
2022/01/07 04:57:57;;;;;;;7.10;2.93;;;6.50;99.90;;;;;;5030695;28;20200;-24
2022/01/07 05:00:27;;;;;;;4.93;3.60;;;6.50;99.90;;;;;;5029572;28;20245;-24
2022/01/07 05:02:54;;;;;;;6.03;3.10;;;6.50;99.90;;;;;;5029093;28;20687;-24
2022/01/07 05:05:21;;;;;;;6.50;3.63;;;6.50;99.90;;;;;;5029825;28;20734;-24
2022/01/07 05:07:49;;;;;;;7.47;3.93;;;6.50;99.90;;;;;;5030150;28;20284;-24
2022/01/07 05:10:18;;;;;;;7.17;3.90;;;6.50;99.90;;;;;;5030070;28;20782;-24
2022/01/07 05:12:46;;;;;;;10.37;3.93;;;6.60;99.90;;;;;;5030501;28;20284;-24
2022/01/07 05:15:14;;;;;;;5.67;3.57;;;6.60;99.90;;;;;;5019943;28;20690;-24
2022/01/07 05:17:43;;;;;;;6.50;3.77;;;6.60;99.90;;;;;;5029865;28;20252;-24
2022/01/07 05:20:12;;;;;;;8.47;3.53;;;6.60;99.90;;;;;;5023621;28;20670;-24
2022/01/07 05:22:40;;;;;;;5.83;3.90;;;6.60;99.90;;;;;;5028966;28;20582;-24
2022/01/07 05:25:11;;;;;;;7.33;4.13;;;6.60;99.90;;;;;;5028315;28;20217;-24
2022/01/07 05:27:39;;;;;;;6.00;3.87;;;6.60;99.90;;;;;;5030284;28;20205;-24
2022/01/07 05:30:09;;;;;;;7.07;4.10;;;6.60;99.90;;;;;;5040909;28;20577;-23
2022/01/07 05:32:36;;;;;;;8.83;4.23;;;6.60;99.90;;;;;;5028754;28;20735;-23
2022/01/07 05:35:05;;;;;;;8.07;4.20;;;6.70;99.90;;;;;;5027920;28;20216;-24
2022/01/07 05:37:33;;;;;;;8.83;4.30;;;6.70;99.90;;;;;;5030209;28;20201;-24
2022/01/07 05:40:00;;;;;;;7.97;4.20;;;6.70;99.90;;;;;;5029525;28;20212;-24
2022/01/07 05:42:27;;;;;;;9.03;4.17;;;6.70;99.90;;;;;;5030393;28;20212;-24
2022/01/07 05:44:56;;;;;;;10.90;4.30;;;6.70;99.90;;;;;;5061304;28;20608;-24
2022/01/07 05:47:23;;;;;;;5.97;4.20;;;6.70;99.90;;;;;;5030160;28;20905;-24
2022/01/07 05:49:50;;;;;;;8.47;4.17;;;6.70;99.90;;;;;;5029843;28;20251;-24
2022/01/07 05:52:18;;;;;;;7.13;4.30;;;6.70;99.90;;;;;;5027938;28;20617;-24
2022/01/07 05:54:45;;;;;;;5.73;4.07;;;6.80;99.90;;;;;;5029380;28;20201;-24
2022/01/07 05:57:12;;;;;;;9.93;4.80;;;6.80;99.90;;;;;;5044956;28;20189;-24
2022/01/07 05:59:42;;;;;;;7.73;4.77;;;6.80;99.90;;;;;;5029257;28;20593;-24
2022/01/07 06:02:09;;;;;;;7.33;4.30;;;6.80;99.90;;;;;;5027794;28;20560;-24
2022/01/07 06:04:37;;;;;;;8.53;4.40;;;6.80;99.90;;;;;;5029554;28;20355;-23
2022/01/07 06:07:04;;;;;;;8.50;4.83;;;6.80;99.90;;;;;;5029395;28;20209;-24
2022/01/07 06:09:34;;;;;;;9.70;5.47;;;6.80;99.90;;;;;;5029589;28;20228;-24
2022/01/07 06:12:05;;;;;;;6.37;4.63;;;6.80;99.90;;;;;;5028844;28;20244;-24
2022/01/07 06:14:34;;;;;;;6.60;4.33;;;6.80;99.90;;;;;;5028746;28;20468;-24
2022/01/07 06:17:07;;;;;;;7.23;4.53;;;6.80;99.90;;;;;;5029027;28;20213;-24
2022/01/07 06:19:35;;;;;;;6.33;4.93;;;6.80;99.90;;;;;;5029510;28;20561;-25
2022/01/07 06:22:06;;;;;;;5.20;4.00;;;6.80;99.90;;;;;;5029419;28;20634;-25
2022/01/07 06:24:33;;;;;;;8.77;4.53;;;6.80;99.90;;;;;;5029203;28;20217;-25
2022/01/07 06:27:01;;;;;;;6.50;4.00;;;6.80;99.90;;;;;;5028915;28;20290;-25
2022/01/07 06:29:32;;;;;;;7.37;3.83;;;6.90;99.90;;;;;;5028790;28;20216;-25
2022/01/07 06:32:02;;;;;;;6.40;4.07;;;6.90;99.90;;;;;;5010894;28;20717;-25
2022/01/07 06:34:29;;;;;;;4.40;3.70;;;6.90;99.90;;;;;;5029187;28;20217;-25
2022/01/07 06:36:59;;;;;;;5.33;3.57;;;6.90;99.90;;;;;;5028997;28;20212;-25
2022/01/07 06:39:28;;;;;;;8.10;4.10;;;6.90;99.90;;;;;;5028959;28;20224;-25
2022/01/07 06:41:59;;;;;;;7.13;3.87;;;6.90;99.90;;;;;;5027472;28;20258;-25
2022/01/07 06:44:29;;;;;;;7.07;4.17;;;6.90;99.90;;;;;;5026837;28;20217;-25
2022/01/07 06:46:56;;;;;;;8.30;3.90;;;6.90;99.90;;;;;;5028578;28;20476;-24
2022/01/07 06:49:24;;;;;;;5.83;3.73;;;6.90;99.90;;;;;;5028622;28;20205;-24
2022/01/07 06:51:54;;;;;;;7.27;4.10;;;7.00;99.90;;;;;;5027274;28;20255;-24
2022/01/07 06:54:21;;;;;;;6.90;4.60;;;7.00;99.90;;;;;;5027168;28;20220;-24
2022/01/07 06:56:48;;;;;;;6.80;4.20;;;7.00;99.90;;;;;;5028034;28;20594;-23
2022/01/07 06:59:15;;;;;;;8.13;4.50;;;7.00;99.90;;;;;;5028644;28;20671;-24
2022/01/07 07:01:47;;;;;;;7.40;3.93;;;7.00;99.90;;;;;;5028068;28;20216;-24
2022/01/07 07:04:16;;;;;;;8.20;4.40;;;7.00;99.90;;;;;;5028010;28;20236;-23
2022/01/07 07:06:44;;;;;;;6.83;4.10;;;7.00;99.90;;;;;;5043384;28;20694;-24
2022/01/07 07:09:16;;;;;;;8.47;4.90;;;7.00;99.90;;;;;;5028284;28;20217;-23
2022/01/07 07:11:43;;;;;;;7.07;4.70;;;7.00;99.90;;;;;;5026369;28;20216;-24
2022/01/07 07:14:11;;;;;;;6.63;4.60;;;7.00;99.90;;;;;;5027772;28;20525;-24
2022/01/07 07:16:39;;;;;;;5.20;4.00;;;7.00;99.90;;;;;;5027445;28;20204;-24
2022/01/07 07:19:06;;;;;;;7.07;4.03;;;7.10;99.90;;;;;;5042940;28;20229;-23
2022/01/07 07:21:33;;;;;;;5.77;3.97;;;7.10;99.90;;;;;;5028152;28;20676;-24
2022/01/07 07:24:03;;;;;;;8.37;4.30;;;7.10;99.90;;;;;;5027879;28;20212;-24
2022/01/07 07:26:31;;;;;;;5.93;3.63;;;7.10;99.90;;;;;;5026065;28;20201;-24
2022/01/07 07:29:03;;;;;;;8.10;3.90;;;7.10;99.90;;;;;;5028027;28;20274;-24
2022/01/07 07:31:31;;;;;;;6.00;3.97;;;7.10;99.90;;;;;;5027472;28;20220;-24
2022/01/07 07:36:34;;;;;;;6.30;3.40;;;7.20;99.90;;;;;;5027507;28;20308;-25
2022/01/07 07:39:07;;;;;;;8.90;4.13;;;7.20;99.90;;;;;;5027734;28;20751;-25
2022/01/07 07:41:36;;;;;;;5.43;3.77;;;7.20;99.90;;;;;;5027614;28;20208;-25
2022/01/07 07:44:06;;;;;;;5.60;3.77;;;7.20;99.90;;;;;;5026020;28;20213;-25
2022/01/07 07:46:36;;;;;;;6.40;3.37;;;7.20;99.90;;;;;;5027675;28;20208;-25
2022/01/07 07:49:05;;;;;;;5.47;3.67;;;7.20;99.90;;;;;;5027538;28;20209;-25
2022/01/07 07:51:32;;;;;;;4.20;3.20;;;7.20;99.90;;;;;;5042561;28;20308;-25
2022/01/07 07:53:59;;;;;;;4.23;3.13;;;7.20;99.90;;;;;;5027260;28;20245;-25
2022/01/07 07:56:27;;;;;;;6.63;3.10;;;7.20;99.90;;;;;;5027333;28;20192;-25
2022/01/07 07:58:57;;;;;;;5.23;3.53;;;7.20;99.90;;;;;;5027208;28;20212;-25
2022/01/07 08:01:27;;;;;;;6.63;3.23;;;7.20;99.90;;;;;;5009478;28;20589;-25
2022/01/07 08:03:55;;;;;;;5.53;3.47;;;7.30;99.90;;;;;;5027459;28;20638;-25
2022/01/07 08:06:27;;;;;;;6.80;3.63;;;7.30;99.90;;;;;;5027657;28;20605;-25
2022/01/07 08:08:54;;;;;;;6.03;3.57;;;7.30;99.90;;;;;;5027729;28;20201;-25
2022/01/07 08:11:30;;;;;;;7.20;3.77;;;7.30;99.90;;;;;;5027016;28;20583;-25
2022/01/07 08:16:42;;;;;;;5.77;3.00;;;7.30;99.90;;;;;;5027042;28;20667;-25
2022/01/07 08:19:10;;;;;;;6.73;3.33;;;7.30;99.90;;;;;;5027546;28;20259;-25
2022/01/07 08:21:39;;;;;;;9.30;3.87;;;7.30;99.90;;;;;;5026081;28;20338;-25
2022/01/07 08:24:06;;;;;;;5.33;3.20;;;7.30;99.90;;;;;;5027357;28;20205;-25
2022/01/07 08:26:37;;;;;;;6.10;3.50;;;7.30;99.90;;;;;;5041924;28;20228;-25
2022/01/07 08:29:07;;;;;;;6.00;3.57;;;7.30;99.90;;;;;;5026746;28;20240;-25
2022/01/07 08:36:56;;;;;;;6.00;3.20;;;7.30;99.90;;;;;;5027059;28;20220;-24
2022/01/07 08:39:24;;;;;;;5.47;3.00;;;7.40;99.90;;;;;;5027137;28;20671;-24
2022/01/07 08:41:54;;;;;;;4.97;2.77;;;7.40;99.90;;;;;;5026687;28;20216;-24
2022/01/07 08:44:24;;;;;;;7.77;3.50;;;7.40;99.90;;;;;;5026810;28;20702;-24
2022/01/07 08:46:52;;;;;;;6.27;3.07;;;7.40;99.90;;;;;;5025518;28;20733;-24
2022/01/07 08:49:19;;;;;;;5.63;3.03;;;7.40;99.90;;;;;;5026715;28;20706;-24
2022/01/07 08:51:46;;;;;;;6.77;2.83;;;7.40;99.90;;;;;;5027031;28;20336;-24
2022/01/07 08:54:14;;;;;;;7.37;3.13;;;7.50;99.90;;;;;;5025637;28;20205;-24
2022/01/07 08:56:43;;;;;;;6.97;3.20;;;7.50;99.90;;;;;;5026907;28;20295;-23
2022/01/07 08:59:11;;;;;;;5.57;3.13;;;7.50;99.90;;;;;;5026644;28;20201;-25
2022/01/07 09:01:38;;;;;;;4.70;3.10;;;7.50;99.90;;;;;;5057606;28;20208;-25
2022/01/07 09:04:08;;;;;;;5.33;3.27;;;7.50;99.90;;;;;;5041498;28;20304;-25
2022/01/07 09:06:36;;;;;;;4.73;2.83;;;7.50;99.90;;;;;;5028996;28;20228;-25
2022/01/07 09:09:06;;;;;;;5.17;2.80;;;7.50;99.90;;;;;;5030661;28;20578;-25
2022/01/07 09:11:33;;;;;;;8.00;4.13;;;7.50;99.90;;;;;;5030059;28;20199;-25
2022/01/07 09:14:03;;;;;;;6.33;2.83;;;7.60;99.90;;;;;;5030013;28;20220;-25
2022/01/07 09:16:30;;;;;;;6.03;3.50;;;7.60;99.90;;;;;;5029541;28;20213;-25
2022/01/07 09:19:00;;;;;;;6.83;3.30;;;7.60;99.90;;;;;;5030121;28;20212;-25
2022/01/07 09:21:27;;;;;;;4.93;3.00;;;7.60;99.90;;;;;;5030257;28;20308;-25
2022/01/07 09:23:57;;;;;;;6.00;2.83;;;7.60;99.90;;;;;;5030344;28;20200;-25
2022/01/07 09:26:24;;;;;;;5.63;2.70;;;7.70;99.90;;;;;;5029569;28;20277;-26
2022/01/07 09:28:51;;;;;;;5.57;2.43;;;7.70;99.90;;;;;;5029897;28;20209;-25
2022/01/07 09:31:18;;;;;;;5.77;2.63;;;7.70;99.90;;;;;;5029972;28;20212;-25
2022/01/07 09:33:46;;;;;;;7.83;2.50;;;7.70;99.90;;;;;;5029012;28;20233;-25
2022/01/07 09:36:33;;;;;;;5.53;3.03;;;7.80;99.90;;;;;;5029869;28;20279;-25
2022/01/07 09:39:00;;;;;;;7.63;2.70;;;7.80;99.90;;;;;;5029900;28;20201;-25
2022/01/07 09:41:30;;;;;;;5.50;2.60;;;7.80;99.90;;;;;;5029566;28;20673;-25
2022/01/07 09:44:01;;;;;;;4.67;2.43;;;7.80;99.90;;;;;;5029810;28;20255;-25
2022/01/07 09:46:29;;;;;;;5.80;2.83;;;7.90;99.90;;;;;;5061163;28;20218;-25
2022/01/07 09:48:58;;;;;;;5.30;2.63;;;7.90;99.90;;;;;;5030020;28;20664;-25
2022/01/07 09:51:27;;;;;;;7.17;2.97;;;7.90;99.90;;;;;;5029581;28;20236;-25
2022/01/07 09:54:00;;;;;;;7.67;2.77;;;7.90;99.90;;;;;;5060892;28;20247;-25
2022/01/07 09:56:30;;;;;;;6.73;2.97;;;8.00;99.90;;;;;;5029254;28;20209;-25
2022/01/07 09:58:57;;;;;;;10.90;3.20;;;8.00;99.90;;;;;;5029199;28;20246;-25
2022/01/07 10:01:26;;;;;;;7.33;3.10;;;8.00;99.90;;;;;;5029622;28;20196;-26
2022/01/07 10:03:54;;;;;;;4.40;2.70;;;8.00;99.90;;;;;;5029522;28;20234;-25
2022/01/07 10:06:24;;;;;;;6.33;3.00;;;8.00;99.90;;;;;;5029646;28;20575;-25
2022/01/07 10:09:07;;;;;;;6.10;2.90;;;8.00;99.90;;;;;;5027995;28;20207;-25
2022/01/07 10:11:34;;;;;;;6.70;2.97;;;8.10;99.90;;;;;;5009242;28;20672;-25
2022/01/07 10:14:19;;;;;;;7.40;3.20;;;8.10;99.90;;;;;;5008979;28;20257;-25
2022/01/07 10:16:57;;;;;;;7.67;2.60;;;8.10;99.90;;;;;;5028178;28;20201;-25
2022/01/07 10:19:34;;;;;;;8.33;3.30;;;8.10;99.90;;;;;;5027735;28;20189;-25
2022/01/07 10:22:07;;;;;;;7.07;3.00;;;8.10;99.90;;;;;;5027460;28;20278;-25
2022/01/07 10:24:53;;;;;;;7.97;3.10;;;8.10;99.90;;;;;;5028848;28;20200;-25
2022/01/07 10:27:23;;;;;;;8.93;2.83;;;8.20;99.90;;;;;;5028301;28;20215;-25
2022/01/07 10:29:50;;;;;;;9.40;2.97;;;8.20;99.90;;;;;;5028253;28;20741;-25
2022/01/07 10:32:31;;;;;;;6.90;2.90;;;8.20;99.90;;;;;;5026884;28;20228;-25
2022/01/07 10:35:19;;;;;;;7.67;3.10;;;8.30;99.90;;;;;;5043624;28;20747;-25
2022/01/07 10:38:01;;;;;;;6.90;3.17;;;8.30;99.90;;;;;;5028358;28;20267;-25
2022/01/07 10:40:35;;;;;;;10.70;3.33;;;8.40;99.90;;;;;;5026507;28;20706;-25
2022/01/07 10:43:21;;;;;;;8.03;3.70;;;8.40;99.90;;;;;;5029061;28;20603;-25
2022/01/07 10:45:53;;;;;;;7.13;2.87;;;8.40;99.90;;;;;;5028254;28;20221;-25
2022/01/07 10:48:47;;;;;;;5.77;3.10;;;8.40;99.90;;;;;;5028692;28;20537;-25
2022/01/07 10:51:18;;;;;;;8.80;3.40;;;8.40;99.90;;;;;;5043527;28;20332;-25
2022/01/07 10:53:56;;;;;;;9.13;3.40;;;8.40;99.90;;;;;;5028694;28;20224;-25
2022/01/07 10:56:39;;;;;;;12.63;3.67;;;8.50;99.90;;;;;;5027890;28;20213;-25
2022/01/07 10:59:11;;;;;;;8.40;3.23;;;8.50;99.90;;;;;;5028142;28;20201;-25
2022/01/07 11:01:38;;;;;;;9.40;3.03;;;8.50;99.90;;;;;;5028110;28;20305;-25
2022/01/07 11:04:08;;;;;;;7.83;3.30;;;8.50;99.90;;;;;;5028361;28;20209;-25
2022/01/07 11:06:37;;;;;;;11.17;2.73;;;8.50;99.90;;;;;;5028414;28;20212;-25
2022/01/07 11:09:09;;;;;;;8.07;2.87;;;8.50;99.90;;;;;;5028304;28;20200;-25
2022/01/07 11:12:05;;;;;;;7.47;2.57;;;8.50;99.90;;;;;;5028077;28;20713;-26
2022/01/07 11:14:35;;;;;;;9.17;2.90;;;8.60;99.90;;;;;;5027652;28;20214;-25
2022/01/07 11:17:04;;;;;;;8.03;3.20;;;8.60;99.90;;;;;;5042352;28;20254;-25
2022/01/07 11:19:44;;;;;;;8.17;2.87;;;8.50;99.90;;;;;;5027869;28;20197;-25
2022/01/07 11:22:14;;;;;;;10.40;3.13;;;8.60;99.90;;;;;;5026778;28;20205;-25
2022/01/07 11:24:55;;;;;;;8.83;2.50;;;8.50;99.90;;;;;;5026689;28;20200;-25
2022/01/07 11:27:26;;;;;;;4.60;2.17;;;8.50;99.90;;;;;;5027617;28;20208;-25
2022/01/07 11:29:59;;;;;;;8.00;2.70;;;8.50;99.90;;;;;;5027459;28;20750;-25
2022/01/07 11:32:26;;;;;;;5.57;2.07;;;8.50;99.90;;;;;;5043011;28;20760;-25
2022/01/07 11:35:14;;;;;;;5.43;2.23;;;8.50;99.90;;;;;;5027469;28;20292;-25
2022/01/07 11:37:45;;;;;;;4.10;1.60;;;8.40;99.90;;;;;;5027776;28;20212;-25
2022/01/07 11:40:33;;;;;;;5.00;1.60;;;8.40;99.90;;;;;;5025526;28;20303;-25
2022/01/07 11:43:12;;;;;;;3.23;1.37;;;8.30;99.90;;;;;;5027870;28;20204;-25
2022/01/07 11:45:42;;;;;;;3.43;1.10;;;8.30;99.90;;;;;;5026756;28;20263;-25
2022/01/07 11:48:26;;;;;;;2.77;1.00;;;8.20;99.90;;;;;;5027570;28;20324;-25
2022/01/07 11:50:58;;;;;;;2.40;1.70;;;8.20;99.90;;;;;;5027428;28;20778;-25
2022/01/07 11:53:28;;;;;;;4.63;1.30;;;8.10;99.90;;;;;;5042745;28;20252;-25
2022/01/07 11:55:59;;;;;;;2.30;1.47;;;8.10;99.90;;;;;;5027104;28;20227;-25
2022/01/07 11:58:40;;;;;;;3.93;1.70;;;8.10;99.90;;;;;;5027814;28;20229;-25
2022/01/07 12:01:31;;;;;;;5.57;1.67;;;8.00;99.90;;;;;;5026596;28;20683;-25
2022/01/07 12:04:00;;;;;;;3.33;1.33;;;8.00;99.90;;;;;;5027657;28;20660;-25
2022/01/07 12:06:38;;;;;;;3.63;1.40;;;8.00;99.90;;;;;;5026098;28;20815;-25
2022/01/07 12:09:11;;;;;;;4.53;1.50;;;8.00;99.90;;;;;;5027410;28;20216;-25
2022/01/07 12:11:45;;;;;;;4.10;1.40;;;8.00;99.90;;;;;;5027124;28;20236;-25
2022/01/07 12:14:16;;;;;;;5.97;1.30;;;8.00;99.90;;;;;;5027105;28;20234;-25
2022/01/07 12:16:45;;;;;;;4.40;1.73;;;8.00;99.90;;;;;;5025320;28;20664;-25
2022/01/07 12:19:15;;;;;;;4.47;1.80;;;8.00;99.90;;;;;;5027402;28;20219;-25
2022/01/07 12:21:47;;;;;;;7.67;2.73;;;8.00;99.90;;;;;;5027137;28;20215;-25
2022/01/07 12:24:20;;;;;;;3.73;1.80;;;8.10;99.90;;;;;;5027373;28;20211;-25
2022/01/07 12:27:00;;;;;;;4.87;1.90;;;8.10;99.90;;;;;;5027002;28;20239;-25
2022/01/07 12:29:31;;;;;;;6.37;2.77;;;8.10;99.90;;;;;;5026980;28;20722;-25
2022/01/07 12:31:59;;;;;;;4.97;2.23;;;8.10;99.90;;;;;;5025410;28;20216;-25
2022/01/07 12:34:28;;;;;;;6.50;2.43;;;8.20;99.90;;;;;;5026507;28;20247;-25
2022/01/07 12:37:00;;;;;;;8.90;2.57;;;8.20;99.90;;;;;;5027430;28;20203;-25
2022/01/07 12:39:33;;;;;;;7.07;2.63;;;8.20;99.90;;;;;;5026187;28;20280;-25
2022/01/07 12:42:03;;;;;;;5.20;2.47;;;8.20;99.90;;;;;;5028942;28;20766;-25
2022/01/07 12:44:39;;;;;;;5.80;2.43;;;8.20;99.90;;;;;;5029211;28;20197;-25
2022/01/07 12:47:08;;;;;;;8.03;2.60;;;8.30;99.90;;;;;;5030516;28;20212;-25
2022/01/07 12:49:46;;;;;;;6.50;2.73;;;8.30;99.90;;;;;;5030945;28;20271;-25
2022/01/07 12:52:19;;;;;;;7.10;2.80;;;8.30;99.90;;;;;;5031171;28;20258;-25
2022/01/07 12:54:51;;;;;;;6.60;2.83;;;8.30;99.90;;;;;;5030554;28;20193;-25
2022/01/07 12:57:42;;;;;;;7.03;2.57;;;8.30;99.90;;;;;;5030782;28;20291;-25
2022/01/07 13:00:30;;;;;;;7.10;2.50;;;8.30;99.90;;;;;;5029797;28;20248;-25
2022/01/07 13:03:03;;;;;;;5.23;2.37;;;8.30;99.90;;;;;;5030736;28;20201;-25
2022/01/07 13:05:37;;;;;;;3.33;1.60;;;8.30;99.90;;;;;;5030963;28;20620;-25
2022/01/07 13:08:11;;;;;;;5.23;1.90;;;8.30;99.90;;;;;;5030735;28;20261;-25
2022/01/07 13:10:40;;;;;;;2.87;1.50;;;8.30;99.90;;;;;;5030057;28;20213;-25
2022/01/07 13:13:09;;;;;;;5.67;1.70;;;8.30;99.90;;;;;;5045531;28;20213;-25
2022/01/07 13:15:56;;;;;;;5.20;1.73;;;8.30;99.90;;;;;;5029359;28;20599;-25
2022/01/07 13:18:32;;;;;;;3.67;2.07;;;8.30;99.90;;;;;;5029117;28;20722;-25
2022/01/07 13:21:06;;;;;;;3.63;1.27;;;8.20;99.90;;;;;;5030285;28;20228;-25
2022/01/07 13:23:38;;;;;;;1.97;1.10;;;8.20;99.90;;;;;;5045655;28;20684;-24
2022/01/07 13:26:06;;;;;;;2.37;0.90;;;8.20;99.90;;;;;;5028434;28;20693;-25